Stations météo

réclame
Mon MeteoGroup
Vinaroz, Espagne (8239): Température de l'air & dewpoint: 13.06.2018 20:00:00 - 19.06.2018 20:00:00 (CEST)Vinaroz, Espagne (8239): Vitesse du vent & gusts: 13.06.2018 20:00:00 - 19.06.2018 20:00:00 (CEST)Vinaroz, Espagne (8239): Direction du vent: 13.06.2018 20:00:00 - 19.06.2018 20:00:00 (CEST)Vinaroz, Espagne (8239): Quantités de précipitations: 13.06.2018 20:00:00 - 19.06.2018 20:00:00 (CEST)
Date & Time tt [°C] td [°C] ff [km/h] ff [knt] fx [km/h] fx [knt] dd rr [mm]
19.06.2018 20:00:00 - - - - - - - -
19.06.2018 19:00:00 26,1 13,9 15 8 30 16 S 0,0
19.06.2018 18:00:00 26,6 14,3 15 8 30 16 S 0,0
19.06.2018 17:00:00 27,5 15,2 15 8 31 17 S 0,0
19.06.2018 16:00:00 27,4 14,7 16 9 30 16 S 0,0
19.06.2018 15:00:00 27,8 13,8 15 8 27 14 S 0,0
19.06.2018 14:00:00 28,8 13,9 14 8 27 15 S -
19.06.2018 13:00:00 28,2 12,5 12 6 24 13 S 0,0
19.06.2018 12:00:00 27,1 12,7 13 7 23 12 SSE 0,0
19.06.2018 11:00:00 27,1 12,7 13 7 21 12 S 0,0
19.06.2018 10:00:00 25,8 10,4 6 3 12 7 E 0,0
19.06.2018 09:00:00 24,9 11,1 5 3 11 6 ENE 0,0
19.06.2018 08:00:00 22,4 12,1 4 2 11 6 NE -
19.06.2018 07:00:00 18,5 10,9 5 3 9 5 N 0,0
19.06.2018 06:00:00 17,5 12,0 5 3 8 4 NNE 0,0
19.06.2018 05:00:00 17,6 12,5 6 3 10 5 NE 0,0
19.06.2018 04:00:00 17,9 13,2 3 2 9 5 NNE 0,0
19.06.2018 03:00:00 18,2 13,3 7 4 10 5 NW 0,0
19.06.2018 02:00:00 19,1 12,3 3 2 5 3 NW -
19.06.2018 01:00:00 - - - - - - - -
19.06.2018 00:00:00 20,8 11,1 4 2 9 5 NE 0,0
18.06.2018 23:00:00 21,4 10,5 4 2 7 4 ESE 0,0
18.06.2018 22:00:00 22,4 10,5 4 2 10 5 SSE 0,0
18.06.2018 21:00:00 24,4 9,6 7 4 15 8 S 0,0
18.06.2018 20:00:00 25,6 9,8 11 6 22 12 SSW -
18.06.2018 19:00:00 27,3 10,0 11 6 43 23 SSW 0,0
18.06.2018 18:00:00 28,1 9,8 12 7 22 12 S 0,0
18.06.2018 17:00:00 28,7 10,9 11 6 24 13 S 0,0
18.06.2018 16:00:00 28,3 10,5 14 8 29 16 S 0,0
18.06.2018 15:00:00 27,4 7,8 16 8 25 14 S 0,0
18.06.2018 14:00:00 28,1 8,9 10 6 27 14 SSW -
18.06.2018 13:00:00 27,5 8,4 11 6 19 10 S 0,0
18.06.2018 12:00:00 27,3 8,3 9 5 21 11 S 0,0
18.06.2018 11:00:00 26,5 8,9 9 5 18 10 S 0,0
18.06.2018 10:00:00 25,5 7,6 4 2 10 6 SSE 0,0
18.06.2018 09:00:00 23,9 9,0 3 1 7 4 SE 0,0
18.06.2018 08:00:00 19,9 9,8 3 2 7 4 N -
18.06.2018 07:00:00 15,7 8,0 3 1 8 5 N 0,0
18.06.2018 06:00:00 16,1 6,2 5 3 9 5 NNW 0,0
18.06.2018 05:00:00 17,3 7,0 4 2 11 6 E 0,0
18.06.2018 04:00:00 18,1 7,6 5 3 10 5 N 0,0
18.06.2018 03:00:00 19,5 9,7 5 3 13 7 NNE 0,0
18.06.2018 02:00:00 18,7 11,8 9 5 16 8 N -
18.06.2018 01:00:00 18,9 13,6 6 3 11 6 NNE 0,0
18.06.2018 00:00:00 19,1 14,3 5 3 11 6 ENE 0,0
17.06.2018 23:00:00 20,4 15,4 3 2 6 4 NE 0,0
17.06.2018 22:00:00 21,3 15,8 5 3 13 7 SSE 0,0
17.06.2018 21:00:00 22,9 14,7 8 5 18 10 S 0,0
17.06.2018 20:00:00 24,7 12,0 9 5 20 11 S -
17.06.2018 19:00:00 25,4 11,9 11 6 23 12 SSW 0,0
17.06.2018 18:00:00 26,5 10,6 14 7 23 12 SSW 0,0
17.06.2018 17:00:00 25,7 9,0 12 6 23 12 SSW 0,0
17.06.2018 16:00:00 25,1 8,1 12 7 23 13 SSW 0,0
17.06.2018 15:00:00 24,8 6,5 13 7 24 13 SSW 0,0
17.06.2018 14:00:00 27,8 8,1 13 7 24 13 S -
17.06.2018 13:00:00 27,5 7,8 11 6 26 14 S 0,0
17.06.2018 12:00:00 27,6 5,8 5 3 19 10 SE 0,0
17.06.2018 11:00:00 26,6 5,5 1 1 11 6 E 0,0
17.06.2018 10:00:00 24,9 5,6 4 2 9 5 ESE 0,0
17.06.2018 09:00:00 22,5 7,4 7 4 11 6 ENE 0,0
17.06.2018 08:00:00 19,9 9,2 6 3 10 6 NE -
17.06.2018 07:00:00 16,9 10,8 6 3 12 6 NE 0,0
17.06.2018 06:00:00 15,9 11,4 9 5 13 7 NNE 0,0
17.06.2018 05:00:00 15,7 10,9 7 4 10 6 NE 0,0
17.06.2018 04:00:00 16,7 10,5 6 3 11 6 NNE 0,0
17.06.2018 03:00:00 16,7 10,3 3 1 12 7 NW 0,0
17.06.2018 02:00:00 18,4 10,8 4 2 12 6 ENE -
17.06.2018 01:00:00 19,1 10,9 8 4 11 6 N 0,0
17.06.2018 00:00:00 20,3 11,0 6 4 10 5 N 0,0
16.06.2018 23:00:00 21,4 10,5 5 3 8 5 SW 0,0
16.06.2018 22:00:00 21,6 11,0 6 3 11 6 S 0,0
16.06.2018 21:00:00 23,7 10,8 7 4 18 10 SSW 0,0
16.06.2018 20:00:00 25,7 10,3 13 7 27 15 SSW -
16.06.2018 19:00:00 26,3 10,0 15 8 27 14 SSW 0,0
16.06.2018 18:00:00 26,8 12,4 16 8 27 14 SSW 0,0
16.06.2018 17:00:00 26,9 12,1 14 8 27 14 SSW 0,0
16.06.2018 16:00:00 26,1 11,8 14 8 23 13 SSW 0,0
16.06.2018 15:00:00 26,9 13,3 12 7 25 13 S 0,0
16.06.2018 14:00:00 27,4 13,0 11 6 32 17 S -
16.06.2018 13:00:00 26,3 12,7 12 7 24 13 SSW 0,0
16.06.2018 12:00:00 25,3 13,5 11 6 22 12 S 0,0
16.06.2018 11:00:00 25,5 14,9 7 4 20 11 S 0,0
16.06.2018 10:00:00 24,5 14,3 8 4 18 10 S 0,0
16.06.2018 09:00:00 22,4 15,7 4 2 9 5 SSE 0,0
16.06.2018 08:00:00 19,9 16,1 4 2 10 5 NNE -
16.06.2018 07:00:00 18,6 15,1 5 3 8 4 N 0,0
16.06.2018 06:00:00 18,4 14,9 5 3 9 5 N 0,0
16.06.2018 05:00:00 18,4 15,1 0 0 6 4 N 0,0
16.06.2018 04:00:00 18,9 15,3 4 2 9 5 NNE 0,0
16.06.2018 03:00:00 18,9 15,2 6 3 9 5 N 0,0
16.06.2018 02:00:00 18,7 14,6 4 2 7 4 N -
16.06.2018 01:00:00 19,5 15,3 0 0 8 4 NNE 0,0
16.06.2018 00:00:00 20,0 15,9 3 2 7 4 E 0,0
15.06.2018 23:00:00 21,1 16,7 4 2 10 5 E 0,0
15.06.2018 22:00:00 21,0 16,4 6 3 14 7 ESE 0,0
15.06.2018 21:00:00 22,7 15,8 6 3 19 11 SE 0,0
15.06.2018 20:00:00 23,4 14,9 10 5 22 12 SE -
15.06.2018 19:00:00 23,4 14,4 14 8 25 13 SSE 0,0
15.06.2018 18:00:00 24,9 14,0 13 7 26 14 SSE 0,0
15.06.2018 17:00:00 26,1 11,4 13 7 27 14 SSE 0,0
15.06.2018 16:00:00 26,0 11,3 14 7 26 14 SE 0,0
15.06.2018 15:00:00 26,0 11,3 15 8 26 14 SE 0,0
15.06.2018 14:00:00 25,1 10,9 13 7 28 15 SE -
15.06.2018 13:00:00 26,4 10,9 12 7 26 14 SE 0,0
15.06.2018 12:00:00 25,5 10,2 14 7 25 13 ESE 0,0
15.06.2018 11:00:00 25,1 10,2 13 7 22 12 ESE 0,0
15.06.2018 10:00:00 24,4 10,6 10 5 18 10 E 0,0
15.06.2018 09:00:00 23,9 8,3 1 1 8 4 N 0,0
15.06.2018 08:00:00 19,3 9,2 5 3 10 5 N -
15.06.2018 07:00:00 15,2 8,3 6 4 11 6 N 0,0
15.06.2018 06:00:00 15,4 8,0 6 4 13 7 N 0,0
15.06.2018 05:00:00 15,9 7,8 5 3 11 6 N 0,0
15.06.2018 04:00:00 16,6 7,8 6 3 12 7 NNW 0,0
15.06.2018 03:00:00 16,8 7,7 6 3 13 7 WNW 0,0
15.06.2018 02:00:00 17,4 7,7 8 4 10 6 W -
15.06.2018 01:00:00 18,0 8,0 2 1 10 6 NW 0,0
15.06.2018 00:00:00 19,3 8,0 4 2 13 7 WNW 0,0
14.06.2018 23:00:00 20,8 10,3 5 3 10 5 WNW 0,0
14.06.2018 22:00:00 21,5 10,3 3 2 9 5 SSE 0,0
14.06.2018 21:00:00 23,9 10,5 6 3 12 6 SSE 0,0
14.06.2018 20:00:00 24,9 9,6 8 4 18 10 SE -
14.06.2018 19:00:00 25,5 9,3 11 6 21 11 SSE 0,0
14.06.2018 18:00:00 25,9 9,3 11 6 21 11 SE 0,0
14.06.2018 17:00:00 27,0 10,6 11 6 25 13 SE 0,0
14.06.2018 16:00:00 27,0 10,2 11 6 26 14 SE 0,0
14.06.2018 15:00:00 27,7 10,9 13 7 24 13 SE 0,0
14.06.2018 14:00:00 27,4 10,2 13 7 26 14 SSE -
14.06.2018 13:00:00 28,4 8,7 3 1 22 12 NNW 0,0
14.06.2018 12:00:00 27,5 8,9 12 7 28 15 W 0,0
14.06.2018 11:00:00 25,9 9,3 14 8 30 16 WNW 0,0
14.06.2018 10:00:00 24,4 9,2 16 8 29 16 WNW 0,0
14.06.2018 09:00:00 22,4 8,1 15 8 24 13 WNW 0,0
14.06.2018 08:00:00 20,8 8,4 9 5 24 13 WNW -
14.06.2018 07:00:00 17,5 6,7 11 6 20 11 WNW 0,0
14.06.2018 06:00:00 17,7 6,2 13 7 23 12 WNW 0,0
14.06.2018 05:00:00 18,1 6,2 11 6 21 11 WNW 0,0
14.06.2018 04:00:00 18,3 6,1 10 5 23 12 WNW 0,0
14.06.2018 03:00:00 19,0 6,1 10 5 31 17 NW 0,0
14.06.2018 02:00:00 19,3 6,1 12 6 27 14 WNW -
14.06.2018 01:00:00 20,1 6,1 14 8 25 14 NW 0,0
14.06.2018 00:00:00 20,8 6,4 13 7 27 15 NW 0,0
13.06.2018 23:00:00 21,7 6,7 14 8 28 15 NNW 0,0
13.06.2018 22:00:00 22,6 7,1 19 11 49 26 WNW 0,0
13.06.2018 21:00:00 23,1 6,8 20 11 40 22 NW 0,0
13.06.2018 20:00:00 25,2 7,3 23 12 43 23 NW -

tt = Température de l'air
td = dewpoint
ff = Vitesse du vent
fx = gusts
dd = Direction du vent
rr = Quantités de précipitations

stations d'obs. à proximité